createdAt,value
2017-02-01T00:00:39.131Z,1011.94
2017-02-01T00:01:39.097Z,1011.92
2017-02-01T00:02:39.070Z,1011.95
2017-02-01T00:03:39.046Z,1011.97
2017-02-01T00:04:39.019Z,1011.92
2017-02-01T00:05:38.998Z,1011.98
2017-02-01T00:06:38.968Z,1011.98
2017-02-01T00:07:38.943Z,1012.01
2017-02-01T00:08:38.918Z,1011.96
2017-02-01T00:09:38.896Z,1011.95
2017-02-01T00:10:38.861Z,1011.93
2017-02-01T00:11:38.843Z,1011.93
2017-02-01T00:12:38.812Z,1011.89
2017-02-01T00:13:38.796Z,1011.88
2017-02-01T00:14:38.763Z,1011.88
2017-02-01T00:15:38.742Z,1011.88
2017-02-01T00:16:38.711Z,1011.86
2017-02-01T00:17:38.684Z,1011.8
2017-02-01T00:18:38.662Z,1011.82
2017-02-01T00:19:38.636Z,1011.77
2017-02-01T00:20:38.608Z,1011.77
2017-02-01T00:21:38.587Z,1011.73
2017-02-01T00:22:38.559Z,1011.79
2017-02-01T00:23:38.527Z,1011.74
2017-02-01T00:24:38.506Z,1011.76
2017-02-01T00:25:38.479Z,1011.78
2017-02-01T00:26:38.455Z,1011.82
2017-02-01T00:27:38.427Z,1011.87
2017-02-01T00:28:38.399Z,1011.85
2017-02-01T00:29:38.374Z,1011.88
2017-02-01T00:30:38.354Z,1011.87
2017-02-01T00:31:38.324Z,1011.87
2017-02-01T00:32:38.295Z,1011.85
2017-02-01T00:33:38.273Z,1011.85
2017-02-01T00:34:38.245Z,1011.85
2017-02-01T00:35:38.223Z,1011.9
2017-02-01T00:36:38.192Z,1011.9
2017-02-01T00:37:38.189Z,1011.85
2017-02-01T00:38:38.146Z,1011.87
2017-02-01T00:39:38.114Z,1011.87
2017-02-01T00:40:38.091Z,1011.81
2017-02-01T00:41:38.071Z,1011.79
2017-02-01T00:42:38.039Z,1011.78
2017-02-01T00:43:38.012Z,1011.78
2017-02-01T00:44:37.988Z,1011.74
2017-02-01T00:45:37.967Z,1011.77
2017-02-01T00:46:37.936Z,1011.74
2017-02-01T00:47:37.905Z,1011.74
2017-02-01T00:48:37.882Z,1011.76
2017-02-01T00:49:37.854Z,1011.75
2017-02-01T00:50:37.831Z,1011.71
2017-02-01T00:51:37.805Z,1011.75
2017-02-01T00:52:37.784Z,1011.73
2017-02-01T00:53:37.752Z,1011.7
2017-02-01T00:54:37.727Z,1011.72
2017-02-01T00:55:37.700Z,1011.68
2017-02-01T00:56:37.670Z,1011.71
2017-02-01T00:57:37.650Z,1011.69
2017-02-01T00:58:37.635Z,1011.67
2017-02-01T00:59:37.599Z,1011.72
2017-02-01T01:00:37.569Z,1011.71
2017-02-01T01:01:37.544Z,1011.7
2017-02-01T01:02:37.517Z,1011.69
2017-02-01T01:03:37.514Z,1011.71
2017-02-01T01:04:37.466Z,1011.68
2017-02-01T01:05:37.444Z,1011.67
2017-02-01T01:06:37.439Z,1011.66
2017-02-01T01:07:37.392Z,1011.67
2017-02-01T01:08:37.361Z,1011.66
2017-02-01T01:09:37.335Z,1011.67
2017-02-01T01:10:37.316Z,1011.68
2017-02-01T01:11:37.284Z,1011.71
2017-02-01T01:12:37.259Z,1011.7
2017-02-01T01:13:37.233Z,1011.73
2017-02-01T01:14:37.204Z,1011.71
2017-02-01T01:15:37.179Z,1011.71
2017-02-01T01:16:37.156Z,1011.76
2017-02-01T01:17:37.129Z,1011.72
2017-02-01T01:18:37.108Z,1011.74
2017-02-01T01:19:37.075Z,1011.75
2017-02-01T01:20:37.051Z,1011.74
2017-02-01T01:21:37.023Z,1011.71
2017-02-01T01:22:37.003Z,1011.69
2017-02-01T01:23:36.970Z,1011.68
2017-02-01T01:24:36.950Z,1011.68
2017-02-01T01:25:36.923Z,1011.68
2017-02-01T01:26:36.896Z,1011.66
2017-02-01T01:27:36.868Z,1011.71
2017-02-01T01:28:36.845Z,1011.73
2017-02-01T01:29:36.818Z,1011.76
2017-02-01T01:30:36.792Z,1011.75
2017-02-01T01:31:36.766Z,1011.76
2017-02-01T01:32:36.737Z,1011.76
2017-02-01T01:33:36.716Z,1011.76
2017-02-01T01:34:36.685Z,1011.78
2017-02-01T01:35:36.664Z,1011.76
2017-02-01T01:36:36.646Z,1011.8
2017-02-01T01:37:36.613Z,1011.84
2017-02-01T01:38:36.584Z,1011.81
2017-02-01T01:39:36.560Z,1011.8
2017-02-01T01:40:36.534Z,1011.86
2017-02-01T01:41:36.512Z,1011.88
2017-02-01T01:42:36.484Z,1011.91
2017-02-01T01:43:36.455Z,1011.9
2017-02-01T01:44:36.432Z,1011.91
2017-02-01T01:45:36.407Z,1011.94
2017-02-01T01:46:36.381Z,1011.91
2017-02-01T01:47:36.357Z,1011.87
2017-02-01T01:48:36.327Z,1011.87
2017-02-01T01:49:36.303Z,1011.85
2017-02-01T01:50:36.278Z,1011.81
2017-02-01T01:51:36.255Z,1011.84
2017-02-01T01:52:36.225Z,1011.81
2017-02-01T01:53:36.198Z,1011.84
2017-02-01T01:54:36.171Z,1011.84
2017-02-01T01:55:36.149Z,1011.87
2017-02-01T01:56:36.125Z,1011.88
2017-02-01T01:57:36.098Z,1011.81
2017-02-01T01:58:36.073Z,1011.84
2017-02-01T01:59:36.044Z,1011.79
2017-02-01T02:00:36.022Z,1011.82
2017-02-01T02:01:35.990Z,1011.79
2017-02-01T02:02:35.971Z,1011.83
2017-02-01T02:03:35.939Z,1011.79
2017-02-01T02:04:35.928Z,1011.81
2017-02-01T02:05:35.889Z,1011.81
2017-02-01T02:06:35.868Z,1011.8
2017-02-01T02:07:35.840Z,1011.75
2017-02-01T02:08:35.817Z,1011.74
2017-02-01T02:09:35.783Z,1011.72
2017-02-01T02:10:35.766Z,1011.77
2017-02-01T02:11:35.733Z,1011.73
2017-02-01T02:12:35.715Z,1011.76
2017-02-01T02:13:35.682Z,1011.72
2017-02-01T02:14:35.656Z,1011.72
2017-02-01T02:15:35.629Z,1011.68
2017-02-01T02:16:35.613Z,1011.69
2017-02-01T02:17:35.583Z,1011.7
2017-02-01T02:18:35.554Z,1011.71
2017-02-01T02:19:35.531Z,1011.72
2017-02-01T02:20:35.503Z,1011.66
2017-02-01T02:21:35.479Z,1011.69
2017-02-01T02:22:35.448Z,1011.68
2017-02-01T02:23:35.424Z,1011.66
2017-02-01T02:24:35.397Z,1011.65
2017-02-01T02:25:35.377Z,1011.65
2017-02-01T02:26:35.346Z,1011.71
2017-02-01T02:27:35.320Z,1011.71
2017-02-01T02:28:35.297Z,1011.67
2017-02-01T02:29:35.276Z,1011.68
2017-02-01T02:30:35.243Z,1011.67
2017-02-01T02:31:35.217Z,1011.66
2017-02-01T02:32:35.191Z,1011.66
2017-02-01T02:33:35.172Z,1011.64
2017-02-01T02:34:35.141Z,1011.64
2017-02-01T02:35:35.116Z,1011.63
2017-02-01T02:36:35.093Z,1011.66
2017-02-01T02:37:35.061Z,1011.66
2017-02-01T02:38:35.035Z,1011.64
2017-02-01T02:39:35.010Z,1011.61
2017-02-01T02:40:34.990Z,1011.65
2017-02-01T02:41:34.959Z,1011.65
2017-02-01T02:42:34.935Z,1011.63
2017-02-01T02:43:34.910Z,1011.62
2017-02-01T02:44:34.885Z,1011.66
2017-02-01T02:45:34.857Z,1011.62
2017-02-01T02:46:34.837Z,1011.58
2017-02-01T02:47:34.806Z,1011.58
2017-02-01T02:48:34.775Z,1011.56
2017-02-01T02:49:34.766Z,1011.53
2017-02-01T02:50:34.726Z,1011.53
2017-02-01T02:51:34.705Z,1011.52
2017-02-01T02:52:34.680Z,1011.52
2017-02-01T02:53:34.651Z,1011.55
2017-02-01T02:54:34.623Z,1011.5
2017-02-01T02:55:34.598Z,1011.51
2017-02-01T02:56:34.572Z,1011.5
2017-02-01T02:57:34.548Z,1011.52
2017-02-01T02:58:34.525Z,1011.53
2017-02-01T02:59:34.501Z,1011.52
2017-02-01T03:00:34.471Z,1011.51
2017-02-01T03:01:34.450Z,1011.52
2017-02-01T03:02:34.419Z,1011.53
2017-02-01T03:03:34.414Z,1011.5
2017-02-01T03:04:34.370Z,1011.53
2017-02-01T03:05:34.346Z,1011.5
2017-02-01T03:06:34.317Z,1011.49
2017-02-01T03:07:34.291Z,1011.45
2017-02-01T03:08:34.267Z,1011.47
2017-02-01T03:09:34.238Z,1011.48
2017-02-01T03:10:34.218Z,1011.52
2017-02-01T03:11:34.186Z,1011.52
2017-02-01T03:12:34.165Z,1011.48
2017-02-01T03:13:34.136Z,1011.5
2017-02-01T03:14:34.113Z,1011.44
2017-02-01T03:15:34.115Z,1011.45
2017-02-01T03:16:34.061Z,1011.46
2017-02-01T03:17:34.033Z,1011.44
2017-02-01T03:18:34.009Z,1011.4
2017-02-01T03:19:33.982Z,1011.42
2017-02-01T03:20:33.959Z,1011.38
2017-02-01T03:21:33.931Z,1011.36
2017-02-01T03:22:33.912Z,1011.41
2017-02-01T03:23:33.891Z,1011.37
2017-02-01T03:24:33.859Z,1011.37
2017-02-01T03:25:33.829Z,1011.34
2017-02-01T03:26:33.804Z,1011.36
2017-02-01T03:27:33.778Z,1011.32
2017-02-01T03:28:33.759Z,1011.31
2017-02-01T03:29:33.735Z,1011.28
2017-02-01T03:30:33.703Z,1011.29
2017-02-01T03:31:33.677Z,1011.21
2017-02-01T03:32:33.656Z,1011.23
2017-02-01T03:33:33.626Z,1011.16
2017-02-01T03:34:33.604Z,1011.17
2017-02-01T03:35:33.575Z,1011.14
2017-02-01T03:36:33.554Z,1011.17
2017-02-01T03:37:33.524Z,1011.17
2017-02-01T03:38:33.503Z,1011.11
2017-02-01T03:39:33.473Z,1011.12
2017-02-01T03:40:33.446Z,1011.12
2017-02-01T03:41:33.422Z,1011.12
2017-02-01T03:42:33.400Z,1011.11
2017-02-01T03:43:33.373Z,1011.07
2017-02-01T03:44:33.352Z,1011.07
2017-02-01T03:45:33.320Z,1011.09
2017-02-01T03:46:33.301Z,1011.1
2017-02-01T03:47:33.272Z,1011.11
2017-02-01T03:48:33.243Z,1011.09
2017-02-01T03:49:33.219Z,1011.08
2017-02-01T03:50:33.196Z,1011.12
2017-02-01T03:51:33.167Z,1011.1
2017-02-01T03:52:33.149Z,1011.1
2017-02-01T03:53:33.118Z,1011.03
2017-02-01T03:54:33.085Z,1011.04
2017-02-01T03:55:33.066Z,1011.05
2017-02-01T03:56:33.038Z,1011.02
2017-02-01T03:57:33.011Z,1011.01
2017-02-01T03:58:32.985Z,1011.03
2017-02-01T03:59:32.965Z,1010.99
2017-02-01T04:00:32.933Z,1011.02
2017-02-01T04:01:32.922Z,1010.96
2017-02-01T04:02:32.883Z,1010.96
2017-02-01T04:03:32.861Z,1010.99
2017-02-01T04:04:32.832Z,1010.98
2017-02-01T04:05:32.811Z,1010.96
2017-02-01T04:06:32.781Z,1010.94
2017-02-01T04:07:32.756Z,1010.95
2017-02-01T04:08:32.731Z,1010.93
2017-02-01T04:09:32.700Z,1010.97
2017-02-01T04:10:32.683Z,1010.9
2017-02-01T04:11:32.649Z,1010.93
2017-02-01T04:12:32.622Z,1010.94
2017-02-01T04:13:32.599Z,1010.93
2017-02-01T04:14:32.572Z,1010.92
2017-02-01T04:15:32.546Z,1010.89
2017-02-01T04:16:32.518Z,1010.91
2017-02-01T04:17:32.495Z,1010.89
2017-02-01T04:18:32.470Z,1010.88
2017-02-01T04:19:32.441Z,1010.96
2017-02-01T04:20:32.414Z,1010.89
2017-02-01T04:21:32.392Z,1010.92
2017-02-01T04:22:32.360Z,1010.93
2017-02-01T04:23:32.336Z,1010.92
2017-02-01T04:24:32.314Z,1010.92
2017-02-01T04:25:32.286Z,1010.91
2017-02-01T04:26:32.258Z,1010.88
2017-02-01T04:27:32.228Z,1010.9
2017-02-01T04:28:32.202Z,1010.89
2017-02-01T04:29:32.176Z,1010.87
2017-02-01T04:30:32.150Z,1010.92
2017-02-01T04:31:32.130Z,1010.93
2017-02-01T04:32:32.100Z,1010.92
2017-02-01T04:33:32.074Z,1010.95
2017-02-01T04:34:32.045Z,1010.96
2017-02-01T04:35:32.020Z,1010.94
2017-02-01T04:36:31.995Z,1010.96
2017-02-01T04:37:31.967Z,1010.91
2017-02-01T04:38:31.942Z,1010.86
2017-02-01T04:39:31.911Z,1010.9
2017-02-01T04:40:31.892Z,1010.92
2017-02-01T04:41:31.864Z,1010.91
2017-02-01T04:42:31.838Z,1010.9
2017-02-01T04:43:31.813Z,1010.91
2017-02-01T04:44:31.784Z,1010.85
2017-02-01T04:45:31.759Z,1010.88
2017-02-01T04:46:31.733Z,1010.9
2017-02-01T04:47:31.704Z,1010.87
2017-02-01T04:48:31.681Z,1010.87
2017-02-01T04:49:31.652Z,1010.87
2017-02-01T04:50:31.631Z,1010.86
2017-02-01T04:51:31.612Z,1010.84
2017-02-01T04:52:31.574Z,1010.81
2017-02-01T04:53:31.548Z,1010.82
2017-02-01T04:54:31.522Z,1010.84
2017-02-01T04:55:31.494Z,1010.8
2017-02-01T04:56:31.472Z,1010.84
2017-02-01T04:57:31.447Z,1010.83
2017-02-01T04:58:31.415Z,1010.84
2017-02-01T04:59:31.397Z,1010.82
2017-02-01T05:00:31.364Z,1010.83
2017-02-01T05:01:31.341Z,1010.84
2017-02-01T05:02:31.315Z,1010.87
2017-02-01T05:03:31.286Z,1010.87
2017-02-01T05:04:31.261Z,1010.87
2017-02-01T05:05:31.235Z,1010.85
2017-02-01T05:06:31.223Z,1010.89
2017-02-01T05:07:31.182Z,1010.93
2017-02-01T05:08:31.160Z,1010.93
2017-02-01T05:09:31.127Z,1010.88
2017-02-01T05:10:31.102Z,1010.95
2017-02-01T05:11:31.080Z,1010.92
2017-02-01T05:12:31.057Z,1010.93
2017-02-01T05:13:31.029Z,1010.93
2017-02-01T05:14:30.998Z,1010.96
2017-02-01T05:15:30.976Z,1010.93
2017-02-01T05:16:30.970Z,1010.91
2017-02-01T05:17:30.920Z,1010.95
2017-02-01T05:18:30.895Z,1010.97
2017-02-01T05:19:30.865Z,1010.94
2017-02-01T05:20:30.846Z,1010.98
2017-02-01T05:21:30.824Z,1010.97
2017-02-01T05:22:30.786Z,1010.98
2017-02-01T05:23:30.764Z,1011.03
2017-02-01T05:24:30.739Z,1010.93
2017-02-01T05:25:30.713Z,1010.99
2017-02-01T05:26:30.681Z,1010.95
2017-02-01T05:27:30.675Z,1010.94
2017-02-01T05:28:30.630Z,1010.92
2017-02-01T05:29:30.603Z,1010.98
2017-02-01T05:30:30.579Z,1010.96
2017-02-01T05:31:30.553Z,1010.96
2017-02-01T05:32:30.525Z,1010.95
2017-02-01T05:33:30.498Z,1010.95
2017-02-01T05:34:30.475Z,1011.03
2017-02-01T05:35:30.447Z,1011.04
2017-02-01T05:36:30.427Z,1011.04
2017-02-01T05:37:30.396Z,1011.04
2017-02-01T05:38:30.368Z,1011.04
2017-02-01T05:39:30.342Z,1011
2017-02-01T05:40:30.324Z,1010.99
2017-02-01T05:41:30.299Z,1010.97
2017-02-01T05:42:30.262Z,1010.92
2017-02-01T05:43:30.237Z,1010.95
2017-02-01T05:44:30.211Z,1010.97
2017-02-01T05:45:30.184Z,1010.92
2017-02-01T05:46:30.156Z,1010.93
2017-02-01T05:47:30.131Z,1010.97
2017-02-01T05:48:30.110Z,1010.92
2017-02-01T05:49:30.079Z,1010.97
2017-02-01T05:50:30.051Z,1010.97
2017-02-01T05:51:30.026Z,1010.96
2017-02-01T05:52:29.997Z,1010.96
2017-02-01T05:53:29.975Z,1010.96
2017-02-01T05:54:29.949Z,1010.97
2017-02-01T05:55:29.929Z,1010.95
2017-02-01T05:56:29.895Z,1010.95
2017-02-01T05:57:29.867Z,1010.98
2017-02-01T05:58:29.844Z,1010.99
2017-02-01T05:59:29.817Z,1010.93
2017-02-01T06:00:29.791Z,1010.93
2017-02-01T06:01:29.763Z,1010.89
2017-02-01T06:02:29.742Z,1010.88
2017-02-01T06:03:29.712Z,1010.86
2017-02-01T06:04:29.692Z,1010.9
2017-02-01T06:05:29.660Z,1010.87
2017-02-01T06:06:29.633Z,1010.86
2017-02-01T06:07:29.610Z,1010.87
2017-02-01T06:08:29.578Z,1010.85
2017-02-01T06:09:29.553Z,1010.82
2017-02-01T06:10:29.529Z,1010.78
2017-02-01T06:11:29.498Z,1010.84
2017-02-01T06:12:29.476Z,1010.85
2017-02-01T06:13:29.446Z,1010.87
2017-02-01T06:14:29.424Z,1010.84
2017-02-01T06:15:29.394Z,1010.88
2017-02-01T06:16:29.373Z,1010.87
2017-02-01T06:17:29.341Z,1010.84
2017-02-01T06:18:29.327Z,1010.87
2017-02-01T06:19:29.293Z,1010.83
2017-02-01T06:20:29.263Z,1010.86
2017-02-01T06:21:29.234Z,1010.85
2017-02-01T06:22:29.213Z,1010.85
2017-02-01T06:23:29.234Z,1010.88
2017-02-01T06:24:29.162Z,1010.91
2017-02-01T06:25:29.134Z,1010.9
2017-02-01T06:26:29.118Z,1010.85
2017-02-01T06:27:29.084Z,1010.9
2017-02-01T06:28:29.056Z,1010.89
2017-02-01T06:29:29.026Z,1010.85
2017-02-01T06:30:28.999Z,1010.86
2017-02-01T06:31:28.978Z,1010.88
2017-02-01T06:32:28.949Z,1010.85
2017-02-01T06:33:28.923Z,1010.87
2017-02-01T06:34:28.894Z,1010.85
2017-02-01T06:35:28.868Z,1010.84
2017-02-01T06:36:28.843Z,1010.83
2017-02-01T06:37:28.814Z,1010.81
2017-02-01T06:38:28.788Z,1010.85
2017-02-01T06:39:28.762Z,1010.82
2017-02-01T06:40:28.740Z,1010.83
2017-02-01T06:41:28.711Z,1010.82
2017-02-01T06:42:28.689Z,1010.8
2017-02-01T06:43:28.659Z,1010.82
2017-02-01T06:44:28.640Z,1010.82
2017-02-01T06:45:28.606Z,1010.82
2017-02-01T06:46:28.578Z,1010.76
2017-02-01T06:47:28.552Z,1010.81
2017-02-01T06:48:28.526Z,1010.79
2017-02-01T06:49:28.503Z,1010.78
2017-02-01T06:50:28.474Z,1010.8
2017-02-01T06:51:28.453Z,1010.81
2017-02-01T06:52:28.424Z,1010.81
2017-02-01T06:53:28.392Z,1010.82
2017-02-01T06:54:28.374Z,1010.78
2017-02-01T06:55:28.344Z,1010.78
2017-02-01T06:56:28.354Z,1010.79
2017-02-01T06:57:28.290Z,1010.85
2017-02-01T06:58:28.269Z,1010.8
2017-02-01T06:59:28.241Z,1010.85
2017-02-01T07:00:28.218Z,1010.81
2017-02-01T07:01:28.190Z,1010.77
2017-02-01T07:02:28.162Z,1010.75
2017-02-01T07:03:28.137Z,1010.76
2017-02-01T07:04:28.107Z,1010.73
2017-02-01T07:05:28.086Z,1010.74
2017-02-01T07:06:28.055Z,1010.75
2017-02-01T07:07:28.032Z,1010.75
2017-02-01T07:08:28.002Z,1010.71
2017-02-01T07:09:27.973Z,1010.71
2017-02-01T07:10:27.945Z,1010.7
2017-02-01T07:11:27.924Z,1010.71
2017-02-01T07:12:27.897Z,1010.73
2017-02-01T07:13:27.875Z,1010.7
2017-02-01T07:14:27.841Z,1010.68
2017-02-01T07:15:27.817Z,1010.68
2017-02-01T07:16:27.799Z,1010.67
2017-02-01T07:17:27.769Z,1010.68
2017-02-01T07:18:27.741Z,1010.67
2017-02-01T07:19:27.711Z,1010.64
2017-02-01T07:20:27.709Z,1010.67
2017-02-01T07:21:27.657Z,1010.63
2017-02-01T07:22:27.629Z,1010.64
2017-02-01T07:23:27.606Z,1010.65
2017-02-01T07:24:27.582Z,1010.65
2017-02-01T07:25:27.560Z,1010.72
2017-02-01T07:26:27.623Z,1010.68
2017-02-01T07:27:27.506Z,1010.69
2017-02-01T07:28:27.472Z,1010.66
2017-02-01T07:29:27.456Z,1010.7
2017-02-01T07:30:27.472Z,1010.64
2017-02-01T07:31:27.393Z,1010.63
2017-02-01T07:32:27.369Z,1010.62
2017-02-01T07:33:27.341Z,1010.61
2017-02-01T07:34:27.316Z,1010.62
2017-02-01T07:35:27.289Z,1010.59
2017-02-01T07:36:27.415Z,1010.61
2017-02-01T07:37:27.237Z,1010.62
2017-02-01T07:38:27.248Z,1010.61
2017-02-01T07:39:27.187Z,1010.63
2017-02-01T07:40:27.257Z,1010.61
2017-02-01T07:41:27.134Z,1010.6
2017-02-01T07:42:27.107Z,1010.65
2017-02-01T07:43:27.080Z,1010.58
2017-02-01T07:44:27.073Z,1010.62
2017-02-01T07:45:27.023Z,1010.59
2017-02-01T07:46:27.002Z,1010.6
2017-02-01T07:47:26.972Z,1010.59
2017-02-01T07:48:26.948Z,1010.65
2017-02-01T07:49:26.924Z,1010.63
2017-02-01T07:50:26.895Z,1010.68
2017-02-01T07:51:26.867Z,1010.64
2017-02-01T07:52:26.848Z,1010.65
2017-02-01T07:53:26.815Z,1010.7
2017-02-01T07:54:26.796Z,1010.66
2017-02-01T07:55:26.767Z,1010.66
2017-02-01T07:56:26.739Z,1010.64
2017-02-01T07:57:26.717Z,1010.66
2017-02-01T07:58:26.686Z,1010.63
2017-02-01T07:59:26.655Z,1010.66
2017-02-01T08:00:26.645Z,1010.67
2017-02-01T08:01:26.608Z,1010.67
2017-02-01T08:02:26.586Z,1010.69
2017-02-01T08:03:26.591Z,1010.66
2017-02-01T08:04:26.532Z,1010.68
2017-02-01T08:05:26.506Z,1010.7
2017-02-01T08:06:26.532Z,1010.68
2017-02-01T08:07:26.449Z,1010.66
2017-02-01T08:08:26.423Z,1010.68
2017-02-01T08:09:26.399Z,1010.75
2017-02-01T08:10:26.368Z,1010.7
2017-02-01T08:11:26.346Z,1010.77
2017-02-01T08:12:26.322Z,1010.72
2017-02-01T08:13:26.300Z,1010.68
2017-02-01T08:14:26.263Z,1010.75
2017-02-01T08:15:26.238Z,1010.7
2017-02-01T08:16:26.214Z,1010.68
2017-02-01T08:17:26.188Z,1010.72
2017-02-01T08:18:26.167Z,1010.68
2017-02-01T08:19:26.137Z,1010.65
2017-02-01T08:20:26.106Z,1010.72
2017-02-01T08:21:26.085Z,1010.73
2017-02-01T08:22:26.054Z,1010.73
2017-02-01T08:23:26.034Z,1010.71
2017-02-01T08:24:26.004Z,1010.71
2017-02-01T08:25:25.982Z,1010.72
2017-02-01T08:26:25.956Z,1010.71
2017-02-01T08:27:25.923Z,1010.72
2017-02-01T08:28:25.897Z,1010.69
2017-02-01T08:29:25.872Z,1010.72
2017-02-01T08:30:25.863Z,1010.72
2017-02-01T08:31:25.872Z,1010.72
2017-02-01T08:32:25.791Z,1010.75
2017-02-01T08:33:25.772Z,1010.75
2017-02-01T08:34:25.739Z,1010.7
2017-02-01T08:35:25.712Z,1010.7
2017-02-01T08:36:25.694Z,1010.66
2017-02-01T08:37:25.669Z,1010.64
2017-02-01T08:38:25.639Z,1010.62
2017-02-01T08:39:25.656Z,1010.62
2017-02-01T08:40:25.580Z,1010.61
2017-02-01T08:41:25.655Z,1010.59
2017-02-01T08:42:25.524Z,1010.56
2017-02-01T08:43:25.513Z,1010.55
2017-02-01T08:44:25.473Z,1010.52
2017-02-01T08:45:25.476Z,1010.59
2017-02-01T08:46:25.421Z,1010.59
2017-02-01T08:47:25.411Z,1010.59
2017-02-01T08:48:25.368Z,1010.6
2017-02-01T08:49:25.343Z,1010.58
2017-02-01T08:50:25.321Z,1010.56
2017-02-01T08:51:25.290Z,1010.53
2017-02-01T08:52:25.259Z,1010.56
2017-02-01T08:53:25.232Z,1010.59
2017-02-01T08:54:25.209Z,1010.56
2017-02-01T08:55:25.187Z,1010.54
2017-02-01T08:56:25.190Z,1010.52
2017-02-01T08:57:25.128Z,1010.57
2017-02-01T08:58:25.099Z,1010.53
2017-02-01T08:59:25.076Z,1010.52
2017-02-01T09:00:25.046Z,1010.5
2017-02-01T09:01:25.020Z,1010.52
2017-02-01T09:02:24.993Z,1010.49
2017-02-01T09:03:24.973Z,1010.48
2017-02-01T09:04:24.942Z,1010.5
2017-02-01T09:05:24.914Z,1010.5
2017-02-01T09:06:24.895Z,1010.51
2017-02-01T09:07:24.859Z,1010.49
2017-02-01T09:08:24.834Z,1010.49
2017-02-01T09:09:24.820Z,1010.48
2017-02-01T09:10:24.784Z,1010.45
2017-02-01T09:11:24.755Z,1010.49
2017-02-01T09:12:24.727Z,1010.44
2017-02-01T09:13:24.703Z,1010.46
2017-02-01T09:14:24.677Z,1010.42
2017-02-01T09:15:24.646Z,1010.46
2017-02-01T09:16:24.620Z,1010.43
2017-02-01T09:17:24.593Z,1010.4
2017-02-01T09:18:24.570Z,1010.43
2017-02-01T09:19:24.543Z,1010.39
2017-02-01T09:20:24.513Z,1010.41
2017-02-01T09:21:24.493Z,1010.39
2017-02-01T09:22:24.463Z,1010.36
2017-02-01T09:23:24.436Z,1010.33
2017-02-01T09:24:24.412Z,1010.31
2017-02-01T09:25:24.390Z,1010.32
2017-02-01T09:26:24.359Z,1010.32
2017-02-01T09:27:24.331Z,1010.32
2017-02-01T09:28:24.310Z,1010.32
2017-02-01T09:29:24.281Z,1010.33
2017-02-01T09:30:24.251Z,1010.29
2017-02-01T09:31:24.228Z,1010.38
2017-02-01T09:32:24.194Z,1010.34
2017-02-01T09:33:24.174Z,1010.34
2017-02-01T09:34:24.146Z,1010.34
2017-02-01T09:35:24.120Z,1010.35
2017-02-01T09:36:24.097Z,1010.33
2017-02-01T09:37:24.065Z,1010.33
2017-02-01T09:38:24.044Z,1010.36
2017-02-01T09:39:24.013Z,1010.33
2017-02-01T09:40:23.985Z,1010.36
2017-02-01T09:41:23.961Z,1010.36
2017-02-01T09:42:23.938Z,1010.33
2017-02-01T09:43:23.909Z,1010.35
2017-02-01T09:44:23.882Z,1010.38
2017-02-01T09:45:23.854Z,1010.4
2017-02-01T09:46:23.831Z,1010.47
2017-02-01T09:47:23.804Z,1010.42
2017-02-01T09:48:23.831Z,1010.43
2017-02-01T09:49:23.764Z,1010.41
2017-02-01T09:50:23.739Z,1010.4
2017-02-01T09:51:23.699Z,1010.44
2017-02-01T09:52:23.675Z,1010.4
2017-02-01T09:53:23.646Z,1010.45
2017-02-01T09:54:23.666Z,1010.4
2017-02-01T09:55:23.594Z,1010.38
2017-02-01T09:56:23.624Z,1010.39
2017-02-01T09:57:23.542Z,1010.41
2017-02-01T09:58:23.520Z,1010.43
2017-02-01T09:59:23.494Z,1010.41
2017-02-01T10:00:23.468Z,1010.41
2017-02-01T10:01:23.489Z,1010.38
2017-02-01T10:02:23.415Z,1010.38
2017-02-01T10:03:23.387Z,1010.43
2017-02-01T10:04:23.366Z,1010.39
2017-02-01T10:05:23.335Z,1010.4
2017-02-01T10:06:23.312Z,1010.37
2017-02-01T10:07:23.288Z,1010.38
2017-02-01T10:08:23.265Z,1010.36
2017-02-01T10:09:23.232Z,1010.42
2017-02-01T10:10:23.209Z,1010.35
2017-02-01T10:11:23.184Z,1010.32
2017-02-01T10:12:23.156Z,1010.34
2017-02-01T10:13:23.143Z,1010.33
2017-02-01T10:14:23.106Z,1010.32
2017-02-01T10:15:23.075Z,1010.31
2017-02-01T10:16:23.054Z,1010.31
2017-02-01T10:17:23.027Z,1010.27
2017-02-01T10:18:23.004Z,1010.29
2017-02-01T10:19:22.972Z,1010.26
2017-02-01T10:20:22.948Z,1010.27
2017-02-01T10:21:22.922Z,1010.24
2017-02-01T10:22:22.894Z,1010.26
2017-02-01T10:23:22.871Z,1010.2
2017-02-01T10:24:22.852Z,1010.24
2017-02-01T10:25:22.819Z,1010.21
2017-02-01T10:26:22.789Z,1010.19
2017-02-01T10:27:22.771Z,1010.22
2017-02-01T10:28:22.744Z,1010.22
2017-02-01T10:29:22.720Z,1010.2
2017-02-01T10:30:22.688Z,1010.2
2017-02-01T10:31:22.664Z,1010.15
2017-02-01T10:32:22.637Z,1010.17
2017-02-01T10:33:22.610Z,1010.14
2017-02-01T10:34:22.587Z,1010.18
2017-02-01T10:35:22.562Z,1010.17
2017-02-01T10:36:22.534Z,1010.19
2017-02-01T10:37:22.507Z,1010.2
2017-02-01T10:38:22.482Z,1010.16
2017-02-01T10:39:22.455Z,1010.21
2017-02-01T10:40:22.425Z,1010.14
2017-02-01T10:41:22.408Z,1010.1
2017-02-01T10:42:22.378Z,1010.12
2017-02-01T10:43:22.351Z,1010.1
2017-02-01T10:44:22.324Z,1010.07
2017-02-01T10:45:22.302Z,1010.04
2017-02-01T10:46:22.273Z,1010.04
2017-02-01T10:47:22.254Z,1009.96
2017-02-01T10:48:22.230Z,1010.05
2017-02-01T10:49:22.196Z,1009.97
2017-02-01T10:50:22.174Z,1009.94
2017-02-01T10:51:22.146Z,1009.95
2017-02-01T10:52:22.117Z,1009.97
2017-02-01T10:53:22.094Z,1009.95
2017-02-01T10:54:22.073Z,1009.96
2017-02-01T10:55:22.049Z,1009.91
2017-02-01T10:56:22.020Z,1009.96
2017-02-01T10:57:21.998Z,1009.94
2017-02-01T10:58:21.967Z,1009.96
2017-02-01T10:59:21.994Z,1009.96
2017-02-01T11:00:21.923Z,1009.93
2017-02-01T11:01:21.988Z,1009.91
2017-02-01T11:02:21.874Z,1009.95
2017-02-01T11:03:21.941Z,1009.9
2017-02-01T11:04:21.817Z,1009.89
2017-02-01T11:05:21.939Z,1009.89
2017-02-01T11:06:21.767Z,1009.89
2017-02-01T11:07:21.787Z,1009.82
2017-02-01T11:08:21.714Z,1009.79
2017-02-01T11:09:21.689Z,1009.75
2017-02-01T11:10:21.667Z,1009.78
2017-02-01T11:11:21.686Z,1009.78
2017-02-01T11:12:21.613Z,1009.7
2017-02-01T11:13:21.584Z,1009.72
2017-02-01T11:14:21.559Z,1009.72
2017-02-01T11:15:21.536Z,1009.65
2017-02-01T11:16:21.515Z,1009.63
2017-02-01T11:17:21.502Z,1009.62
2017-02-01T11:18:21.461Z,1009.58
2017-02-01T11:19:21.436Z,1009.53
2017-02-01T11:20:21.414Z,1009.49
2017-02-01T11:21:21.382Z,1009.52
2017-02-01T11:22:21.351Z,1009.49
2017-02-01T11:23:21.325Z,1009.41
2017-02-01T11:24:21.308Z,1009.43
2017-02-01T11:25:21.277Z,1009.41
2017-02-01T11:26:21.248Z,1009.4
2017-02-01T11:27:21.226Z,1009.33
2017-02-01T11:28:21.200Z,1009.34
2017-02-01T11:29:21.174Z,1009.29
2017-02-01T11:30:21.151Z,1009.31
2017-02-01T11:31:21.127Z,1009.32
2017-02-01T11:32:21.100Z,1009.29
2017-02-01T11:33:21.073Z,1009.3
2017-02-01T11:34:21.054Z,1009.36
2017-02-01T11:35:21.026Z,1009.35
2017-02-01T11:36:21.005Z,1009.36
2017-02-01T11:37:20.980Z,1009.36
2017-02-01T11:38:20.958Z,1009.34
2017-02-01T11:39:20.928Z,1009.34
2017-02-01T11:40:20.908Z,1009.32
2017-02-01T11:41:20.883Z,1009.34
2017-02-01T11:42:20.861Z,1009.3
2017-02-01T11:43:20.836Z,1009.32
2017-02-01T11:44:20.812Z,1009.28
2017-02-01T11:45:20.792Z,1009.23
2017-02-01T11:46:20.765Z,1009.24
2017-02-01T11:47:20.745Z,1009.2
2017-02-01T11:48:20.721Z,1009.13
2017-02-01T11:49:20.708Z,1009.1
2017-02-01T11:50:20.673Z,1009.13
2017-02-01T11:51:20.652Z,1009.1
2017-02-01T11:52:20.628Z,1009.05
2017-02-01T11:53:20.601Z,1009.1
2017-02-01T11:54:20.581Z,1009.13
2017-02-01T11:55:20.560Z,1009.04
2017-02-01T11:56:20.534Z,1009.04
2017-02-01T11:57:20.507Z,1009.01
2017-02-01T11:58:20.489Z,1009.01
2017-02-01T11:59:20.471Z,1008.99
2017-02-01T12:00:20.438Z,1008.97
2017-02-01T12:01:20.424Z,1008.99
2017-02-01T12:02:20.395Z,1009.03
2017-02-01T12:03:20.373Z,1009.01
2017-02-01T12:04:20.348Z,1009
2017-02-01T12:05:20.332Z,1009.02
2017-02-01T12:06:20.310Z,1009.08
2017-02-01T12:07:20.295Z,1009.04
2017-02-01T12:08:20.264Z,1009.02